Time;durP1;ratioP1;P1;durP2;ratioP2;P2;SDS_P1;SDS_P2;PMS_P1;PMS_P2;Temp;Humidity;BMP_temperature;BMP_pressure;BME280_temperature;BME280_humidity;BME280_pressure;Samples;Min_cycle;Max_cycle;Signal;HPM_P1;HPM_P2
2024/04/07 00:02:09;;;;;;;3.67;2.97;;;;;;;19.85;47.42;99725.38;10415900;28;20681;-63
2024/04/07 00:07:09;;;;;;;4.22;2.33;;;;;;;19.80;47.75;99746.72;10410973;28;20044;-65
2024/04/07 00:12:10;;;;;;;4.18;2.58;;;;;;;19.82;47.43;99737.41;10411573;28;20739;-65
2024/04/07 00:17:16;;;;;;;3.90;2.38;;;;;;;19.61;48.03;99712.09;10411558;28;20048;-64
2024/04/07 00:22:17;;;;;;;2.67;2.40;;;;;;;19.53;48.82;99722.19;10422710;28;20646;-64
2024/04/07 00:27:19;;;;;;;3.42;2.10;;;;;;;19.64;48.44;99745.13;10401667;28;20160;-63
2024/04/07 00:32:20;;;;;;;2.97;2.42;;;;;;;19.39;48.53;99724.75;10366579;28;20165;-64
2024/04/07 00:37:21;;;;;;;3.28;2.53;;;;;;;19.49;49.21;99743.34;10369979;28;20314;-64
2024/04/07 00:42:21;;;;;;;4.00;2.38;;;;;;;19.40;49.62;99737.25;10414000;28;20136;-65
2024/04/07 00:47:22;;;;;;;3.72;2.40;;;;;;;19.29;49.97;99732.38;10407845;28;20801;-64
2024/04/07 00:52:24;;;;;;;4.35;3.00;;;;;;;19.25;49.87;99706.81;10412551;28;20052;-64
2024/04/07 00:57:24;;;;;;;5.38;3.20;;;;;;;19.21;49.70;99716.31;10406404;28;20749;-63
2024/04/07 01:02:24;;;;;;;3.08;2.78;;;;;;;19.16;49.84;99714.19;10404732;28;20143;-63
2024/04/07 01:07:25;;;;;;;3.55;2.92;;;;;;;19.14;50.40;99736.97;10414067;28;20040;-64
2024/04/07 01:12:26;;;;;;;2.83;2.42;;;;;;;19.05;50.46;99744.34;10404540;28;20163;-64
2024/04/07 01:17:27;;;;;;;3.88;2.38;;;;;;;18.99;51.04;99745.97;10406938;28;20055;-64
2024/04/07 01:22:29;;;;;;;3.25;2.92;;;;;;;18.88;51.61;99768.84;10408187;28;20133;-64
2024/04/07 01:27:29;;;;;;;3.53;2.85;;;;;;;18.84;51.42;99762.16;10406425;28;20132;-65
2024/04/07 01:32:30;;;;;;;4.93;3.03;;;;;;;18.79;51.92;99777.22;10406950;28;20623;-64
2024/04/07 01:37:30;;;;;;;3.72;2.88;;;;;;;18.61;51.66;99762.28;10403455;28;20056;-64
2024/04/07 01:42:31;;;;;;;4.28;3.10;;;;;;;18.63;52.00;99749.47;10411499;28;20052;-63
2024/04/07 01:47:31;;;;;;;3.95;3.55;;;;;;;18.63;52.52;99762.94;10408422;28;20492;-64
2024/04/07 01:52:32;;;;;;;6.00;3.45;;;;;;;18.58;53.10;99751.88;10368112;28;20072;-65
2024/04/07 01:57:32;;;;;;;5.22;3.42;;;;;;;18.54;52.69;99758.69;10411145;28;20053;-64
2024/04/07 02:02:34;;;;;;;6.40;3.40;;;;;;;18.49;53.17;99763.78;10406579;28;20048;-65
2024/04/07 02:07:34;;;;;;;4.72;3.40;;;;;;;18.45;53.41;99762.47;10411722;28;20133;-65
2024/04/07 02:12:35;;;;;;;4.00;3.10;;;;;;;18.42;54.56;99774.50;10413687;28;20056;-68
2024/04/07 02:17:35;;;;;;;5.85;3.78;;;;;;;18.36;54.18;99778.75;10408943;28;20122;-64
2024/04/07 02:22:36;;;;;;;5.70;3.13;;;;;;;18.34;54.14;99778.09;10405645;28;20049;-64
2024/04/07 02:27:36;;;;;;;3.70;3.33;;;;;;;18.37;54.40;99788.53;10388666;28;20046;-65
2024/04/07 02:32:37;;;;;;;6.10;4.00;;;;;;;18.34;54.35;99782.66;10391752;28;20123;-64
2024/04/07 02:37:37;;;;;;;5.10;3.50;;;;;;;18.30;54.87;99784.88;10402839;28;20049;-64
2024/04/07 02:42:38;;;;;;;4.35;3.40;;;;;;;18.29;54.96;99796.69;10407945;28;20063;-63
2024/04/07 02:52:57;;;;;;;4.57;4.03;;;;;;;18.25;54.98;99799.94;10408715;28;20723;-63
2024/04/07 02:57:57;;;;;;;4.20;3.80;;;;;;;18.21;55.45;99810.25;10419897;28;20132;-64
2024/04/07 03:02:58;;;;;;;4.97;3.22;;;;;;;18.18;55.90;99816.00;10397517;28;20628;-65
2024/04/07 03:07:58;;;;;;;5.13;4.03;;;;;;;17.86;55.84;99777.56;10401506;28;20056;-65
2024/04/07 03:12:59;;;;;;;3.60;3.22;;;;;;;18.02;55.15;99811.59;10409807;28;20079;-65
2024/04/07 03:18:00;;;;;;;5.05;3.25;;;;;;;17.91;54.64;99785.97;10411754;28;20714;-63
2024/04/07 03:23:00;;;;;;;4.25;3.63;;;;;;;18.08;54.14;99815.44;10411075;28;20143;-63
2024/04/07 03:28:01;;;;;;;4.60;2.63;;;;;;;18.12;54.22;99820.25;10412434;28;20053;-65
2024/04/07 03:33:02;;;;;;;4.13;2.97;;;;;;;18.14;53.73;99825.47;10408622;28;20049;-64
2024/04/07 03:38:03;;;;;;;3.95;3.25;;;;;;;18.08;52.44;99826.19;10414853;28;20136;-64
2024/04/07 03:43:04;;;;;;;6.25;3.45;;;;;;;18.02;52.27;99828.59;10411354;28;20053;-63
2024/04/07 03:48:05;;;;;;;3.17;2.80;;;;;;;17.97;52.68;99832.84;10411761;28;20048;-64
2024/04/07 03:53:06;;;;;;;4.63;2.97;;;;;;;17.97;52.40;99838.22;10417554;28;20136;-64
2024/04/07 03:58:06;;;;;;;4.88;2.65;;;;;;;17.66;51.56;99796.06;10409590;28;20702;-64
2024/04/07 04:03:07;;;;;;;4.60;2.55;;;;;;;17.91;51.22;99847.88;10408137;28;20078;-64
2024/04/07 04:08:08;;;;;;;5.35;2.60;;;;;;;17.93;50.53;99867.38;10412160;28;20673;-65
2024/04/07 04:13:08;;;;;;;3.17;2.30;;;;;;;17.91;50.39;99872.13;10406987;28;20052;-64
2024/04/07 04:18:09;;;;;;;7.25;2.70;;;;;;;17.89;50.33;99881.34;10392012;28;20045;-64
2024/04/07 04:23:09;;;;;;;5.32;2.20;;;;;;;17.81;50.09;99879.56;10412939;28;21280;-64
2024/04/07 04:28:10;;;;;;;4.80;1.60;;;;;;;17.82;50.03;99900.09;10395985;28;20056;-66
2024/04/07 04:33:11;;;;;;;2.88;1.73;;;;;;;17.79;49.42;99900.44;10379826;28;20113;-63
2024/04/07 04:38:11;;;;;;;3.65;2.00;;;;;;;17.83;48.66;99909.81;10397321;28;20048;-65
2024/04/07 04:43:11;;;;;;;4.65;1.80;;;;;;;17.83;49.00;99899.91;10387068;28;20788;-65
2024/04/07 04:48:12;;;;;;;7.30;1.73;;;;;;;17.90;49.11;99916.22;10406281;28;20060;-64
2024/04/07 04:53:12;;;;;;;4.53;1.50;;;;;;;17.91;49.59;99925.97;10404389;28;20061;-63
2024/04/07 04:58:13;;;;;;;3.38;1.83;;;;;;;17.91;50.04;99928.66;10410118;28;20055;-64
2024/04/07 05:03:14;;;;;;;3.38;2.05;;;;;;;18.06;50.46;99962.88;10408064;28;20082;-64
2024/04/07 05:08:15;;;;;;;3.42;2.20;;;;;;;18.07;50.34;99960.00;10381877;28;20136;-64
2024/04/07 05:13:15;;;;;;;3.58;1.95;;;;;;;18.08;50.29;99960.84;10403450;28;20144;-64
2024/04/07 05:18:16;;;;;;;4.18;2.08;;;;;;;18.09;50.13;99962.50;10422551;28;20051;-64
2024/04/07 05:23:17;;;;;;;2.47;1.30;;;;;;;18.14;50.40;99966.34;10406651;28;20152;-64
2024/04/07 05:28:17;;;;;;;4.13;1.75;;;;;;;18.17;49.42;99970.56;10404475;28;20045;-64
2024/04/07 05:33:18;;;;;;;3.38;1.50;;;;;;;18.15;48.08;99994.97;10373481;28;20057;-65
2024/04/07 05:38:18;;;;;;;4.80;1.38;;;;;;;18.25;48.03;100018.13;10410997;28;20045;-65
2024/04/07 05:43:19;;;;;;;4.60;1.20;;;;;;;18.18;47.77;99980.31;10402811;28;20049;-64
2024/04/07 05:48:23;;;;;;;2.13;1.10;;;;;;;18.41;47.93;100025.28;10375061;28;20704;-64
2024/04/07 05:53:23;;;;;;;3.28;1.02;;;;;;;18.51;48.23;100012.38;10404809;28;20097;-63
2024/04/07 05:58:24;;;;;;;4.25;0.82;;;;;;;18.57;48.00;100025.16;10402469;28;20055;-66
2024/04/07 06:03:25;;;;;;;3.25;1.42;;;;;;;18.62;46.98;100021.91;10396529;28;20856;-65
2024/04/07 06:08:25;;;;;;;4.18;1.25;;;;;;;18.60;46.59;100015.84;10403743;28;20071;-66
2024/04/07 06:13:26;;;;;;;4.53;2.33;;;;;;;18.55;47.17;100006.47;10399123;28;20076;-78
2024/04/07 06:18:26;;;;;;;6.20;1.67;;;;;;;18.80;46.47;100072.81;10407336;28;20047;-68
2024/04/07 06:23:27;;;;;;;6.13;1.27;;;;;;;18.91;46.73;100069.69;10406830;28;20371;-70
2024/04/07 06:28:27;;;;;;;6.47;1.48;;;;;;;18.83;46.24;100049.00;10402884;28;20768;-66
2024/04/07 06:33:28;;;;;;;3.63;1.08;;;;;;;19.19;46.12;100109.56;10396297;28;20044;-66
2024/04/07 06:38:30;;;;;;;5.63;1.05;;;;;;;19.35;46.22;100104.00;10413235;28;20174;-68
2024/04/07 06:43:31;;;;;;;4.43;1.35;;;;;;;19.30;45.34;100095.59;10417078;28;20133;-71
2024/04/07 06:48:32;;;;;;;3.78;1.75;;;;;;;19.58;44.90;100113.88;10409583;28;20790;-67
2024/04/07 06:53:32;;;;;;;3.72;1.65;;;;;;;19.76;45.34;100133.25;10387030;28;20114;-67
2024/04/07 06:58:33;;;;;;;6.47;1.65;;;;;;;19.91;45.41;100149.47;10409811;28;20057;-67
2024/04/07 07:03:33;;;;;;;7.38;1.85;;;;;;;20.06;44.42;100140.53;10390396;28;20133;-70
2024/04/07 07:08:34;;;;;;;3.78;1.10;;;;;;;20.20;45.12;100165.84;10415522;28;20055;-69
2024/04/07 07:13:41;;;;;;;6.40;1.73;;;;;;;20.37;45.27;100182.69;10414930;28;20057;-72
2024/04/07 07:18:42;;;;;;;4.25;1.05;;;;;;;20.42;44.61;100181.09;10368266;28;20139;-67
2024/04/07 07:23:42;;;;;;;5.38;1.38;;;;;;;20.39;44.67;100186.88;10409453;28;20048;-68
2024/04/07 07:28:43;;;;;;;3.28;1.20;;;;;;;20.38;45.19;100179.78;10401611;28;20113;-67
2024/04/07 07:33:43;;;;;;;4.47;1.40;;;;;;;20.42;45.00;100189.19;10410932;28;20053;-68
2024/04/07 07:38:45;;;;;;;4.88;1.52;;;;;;;20.50;45.41;100193.66;10408372;28;20052;-71
2024/04/07 07:43:46;;;;;;;5.63;2.13;;;;;;;20.72;45.08;100213.50;10392858;28;20127;-69
2024/04/07 07:48:47;;;;;;;4.85;1.30;;;;;;;20.81;43.87;100222.34;10389768;28;20081;-64
2024/04/07 07:53:48;;;;;;;3.75;1.40;;;;;;;20.96;44.70;100233.94;10417295;28;20048;-63
2024/04/07 07:58:49;;;;;;;3.50;1.27;;;;;;;21.22;44.37;100224.41;10409261;28;20131;-65
2024/04/07 08:03:49;;;;;;;5.00;1.10;;;;;;;21.44;43.80;100235.19;10413910;28;20672;-65
2024/04/07 08:08:50;;;;;;;4.13;1.25;;;;;;;21.59;43.84;100235.16;10409094;28;20041;-63
2024/04/07 08:13:50;;;;;;;6.40;1.05;;;;;;;21.52;43.16;100211.56;10403610;28;20663;-63
2024/04/07 08:18:51;;;;;;;4.65;1.23;;;;;;;21.74;43.56;100241.31;10408786;28;20056;-64
2024/04/07 08:23:52;;;;;;;3.65;1.13;;;;;;;21.64;43.11;100243.53;10414575;28;20376;-63
2024/04/07 08:28:52;;;;;;;4.90;1.08;;;;;;;21.62;44.11;100251.00;10406322;28;20618;-64
2024/04/07 08:33:53;;;;;;;4.60;1.10;;;;;;;21.67;43.46;100264.81;10405446;28;20110;-64
2024/04/07 08:38:53;;;;;;;3.15;0.80;;;;;;;21.65;43.80;100278.56;10386547;28;20060;-64
2024/04/07 08:43:54;;;;;;;3.80;0.93;;;;;;;21.64;44.01;100270.63;10386460;28;20068;-64
2024/04/07 08:48:57;;;;;;;4.75;1.10;;;;;;;21.70;44.14;100267.13;10409628;28;20637;-63
2024/04/07 08:53:59;;;;;;;;;;;;;;;21.78;44.08;100269.66;10412923;28;20132;-63
2024/04/07 08:59:00;;;;;;;5.18;1.42;;;;;;;21.70;43.10;100264.41;10412498;28;20012;-64
2024/04/07 09:04:01;;;;;;;3.42;0.95;;;;;;;21.77;43.18;100270.72;10397691;28;20144;-64
2024/04/07 09:09:01;;;;;;;3.60;1.23;;;;;;;21.74;42.79;100260.28;10398662;28;20722;-64
2024/04/07 09:14:02;;;;;;;8.50;1.40;;;;;;;21.99;42.66;100278.78;10404581;28;20668;-64
2024/04/07 09:19:05;;;;;;;2.58;1.10;;;;;;;22.02;42.96;100284.69;10405807;28;20148;-63
2024/04/07 09:24:09;;;;;;;4.20;1.23;;;;;;;22.16;42.68;100291.00;10411913;28;20730;-65
2024/04/07 09:29:09;;;;;;;2.88;1.05;;;;;;;22.21;43.44;100255.16;10406722;28;20123;-64
2024/04/07 09:34:10;;;;;;;3.25;1.50;;;;;;;22.47;42.47;100270.75;10391699;28;20120;-64
2024/04/07 09:39:11;;;;;;;8.10;1.80;;;;;;;22.56;41.81;100266.00;10409452;28;20044;-64
2024/04/07 09:44:12;;;;;;;3.47;1.13;;;;;;;22.62;41.11;100261.66;10407737;28;20052;-63
2024/04/07 09:49:14;;;;;;;5.22;1.67;;;;;;;22.85;41.20;100259.44;10414980;28;20179;-63
2024/04/07 09:54:28;;;;;;;7.13;1.00;;;;;;;23.15;40.73;100251.00;10409413;28;20135;-64
2024/04/07 09:59:28;;;;;;;;;;;;;;;23.57;39.59;100248.94;10392230;28;20140;-65
2024/04/07 10:04:30;;;;;;;3.15;1.38;;;;;;;23.35;39.33;100209.44;10387263;28;20391;-64
2024/04/07 10:09:31;;;;;;;5.43;1.00;;;;;;;23.52;40.47;100245.16;10365562;28;20120;-64
2024/04/07 10:14:40;;;;;;;1.88;0.80;;;;;;;23.50;40.47;100234.50;10388952;28;20708;-64
2024/04/07 10:19:44;;;;;;;4.45;2.03;;;;;;;23.55;40.74;100239.31;10407016;28;20137;-64
2024/04/07 10:24:50;;;;;;;4.53;1.45;;;;;;;23.78;40.11;100244.31;10426442;28;20131;-63
2024/04/07 10:29:58;;;;;;;4.72;1.20;;;;;;;23.75;40.08;100242.00;10394759;28;20153;-63
2024/04/07 10:35:00;;;;;;;3.53;1.08;;;;;;;23.77;40.09;100239.94;10411472;28;20597;-64
2024/04/07 10:40:08;;;;;;;4.95;1.10;;;;;;;24.27;39.53;100225.84;10404369;28;21664;-66
2024/04/07 10:45:11;;;;;;;2.40;0.63;;;;;;;25.00;38.90;100241.84;10404933;28;20124;-65
2024/04/07 10:50:11;;;;;;;;;;;;;;;25.90;36.49;100245.34;10404353;28;20128;-68
2024/04/07 10:55:12;;;;;;;4.47;1.00;;;;;;;26.58;35.32;100229.91;10402278;28;19932;-66
2024/04/07 11:00:13;;;;;;;3.58;1.45;;;;;;;26.96;33.86;100228.78;10406305;28;20067;-68
2024/04/07 11:05:13;;;;;;;2.97;0.65;;;;;;;27.38;33.62;100225.25;10408506;28;20117;-64
2024/04/07 11:10:16;;;;;;;2.63;0.85;;;;;;;27.94;32.47;100220.25;10408164;28;20148;-66
2024/04/07 11:15:17;;;;;;;5.90;1.20;;;;;;;28.54;31.66;100227.31;10410438;28;20144;-64
2024/04/07 11:20:18;;;;;;;3.90;0.90;;;;;;;29.15;30.42;100227.63;10411809;28;20228;-64
2024/04/07 11:25:20;;;;;;;2.93;0.73;;;;;;;29.55;29.63;100212.97;10367197;28;20522;-67
2024/04/07 11:30:32;;;;;;;3.20;0.85;;;;;;;29.95;28.27;100236.63;10366659;28;20129;-66
2024/04/07 11:35:33;;;;;;;3.43;0.70;;;;;;;30.39;27.77;100237.75;10410787;28;20136;-68
2024/04/07 11:40:34;;;;;;;4.20;0.93;;;;;;;30.36;27.24;100178.69;10398691;28;20157;-66
2024/04/07 11:45:34;;;;;;;2.33;1.13;;;;;;;31.19;27.20;100216.13;10383480;28;20057;-65
2024/04/07 11:50:35;;;;;;;1.70;0.65;;;;;;;31.40;26.93;100211.59;10366118;28;20057;-66
2024/04/07 11:55:37;;;;;;;3.60;0.70;;;;;;;31.56;26.38;100218.09;10365799;28;20080;-65
2024/04/07 12:00:37;;;;;;;3.90;0.75;;;;;;;31.81;26.01;100202.84;10380337;28;20575;-64
2024/04/07 12:05:39;;;;;;;2.63;0.53;;;;;;;32.09;25.37;100198.84;10393970;28;20051;-66
2024/04/07 12:10:40;;;;;;;4.45;0.73;;;;;;;32.03;26.29;100209.00;10397919;28;20131;-66
2024/04/07 12:15:40;;;;;;;2.57;0.90;;;;;;;32.04;26.35;100207.09;10409274;28;20067;-65
2024/04/07 12:20:41;;;;;;;2.40;0.90;;;;;;;32.13;26.33;100200.00;10411870;28;20067;-66
2024/04/07 12:25:41;;;;;;;3.00;0.70;;;;;;;31.89;25.88;100183.91;10410971;28;20128;-64
2024/04/07 12:30:44;;;;;;;4.37;0.80;;;;;;;32.08;25.30;100165.00;10414673;28;20048;-65
2024/04/07 12:35:45;;;;;;;3.97;0.68;;;;;;;32.46;25.00;100173.13;10416683;28;20136;-64
2024/04/07 12:40:45;;;;;;;4.23;0.73;;;;;;;32.70;25.22;100170.75;10406513;28;20261;-64
2024/04/07 12:45:46;;;;;;;3.73;0.63;;;;;;;32.09;25.70;100165.81;10414894;28;20045;-65
2024/04/07 12:50:46;;;;;;;4.00;1.00;;;;;;;31.04;26.60;100163.78;10411142;28;20048;-64
2024/04/07 12:55:47;;;;;;;4.67;1.30;;;;;;;30.78;27.32;100153.34;10410519;28;20056;-65
2024/04/07 13:00:47;;;;;;;4.10;0.90;;;;;;;30.15;28.55;100140.00;10410771;28;20068;-64
2024/04/07 13:05:48;;;;;;;3.27;0.90;;;;;;;29.92;28.82;100130.16;10398177;28;20235;-64
2024/04/07 13:10:49;;;;;;;4.72;1.73;;;;;;;29.69;28.92;100119.38;10410342;28;20152;-65
2024/04/07 13:15:52;;;;;;;7.70;1.23;;;;;;;29.30;30.12;100117.44;10411897;28;20048;-66
2024/04/07 13:20:54;;;;;;;3.58;1.15;;;;;;;29.22;30.09;100102.28;10411113;28;20139;-65
2024/04/07 13:25:54;;;;;;;5.37;1.20;;;;;;;29.23;29.78;100084.75;10404087;28;20119;-64
2024/04/07 13:30:56;;;;;;;7.40;3.08;;;;;;;29.45;29.10;100103.16;10407663;28;20037;-65
2024/04/07 13:35:56;;;;;;;3.20;0.80;;;;;;;29.23;29.05;100092.13;10410454;28;20123;-66
2024/04/07 13:40:57;;;;;;;4.40;0.70;;;;;;;28.94;29.79;100085.91;10411631;28;20982;-64
2024/04/07 13:45:58;;;;;;;8.05;1.80;;;;;;;28.83;29.49;100091.22;10429103;28;20127;-65
2024/04/07 13:50:58;;;;;;;6.18;1.25;;;;;;;28.74;30.40;100092.72;10410976;28;20039;-64
2024/04/07 13:55:58;;;;;;;6.00;0.97;;;;;;;28.29;29.90;100079.84;10412787;28;20687;-63
2024/04/07 14:01:00;;;;;;;5.55;1.15;;;;;;;28.14;31.00;100070.25;10411981;28;20314;-63
2024/04/07 14:06:02;;;;;;;2.75;0.88;;;;;;;28.11;30.33;100070.75;10410262;28;20111;-65
2024/04/07 14:11:02;;;;;;;2.97;0.70;;;;;;;27.96;31.27;100059.47;10408672;28;20140;-65
2024/04/07 14:16:03;;;;;;;4.30;1.20;;;;;;;27.96;30.67;100054.84;10400432;28;20800;-65
2024/04/07 14:21:04;;;;;;;4.30;1.33;;;;;;;27.78;30.55;100058.56;10424417;28;20446;-65
2024/04/07 14:26:05;;;;;;;5.60;0.77;;;;;;;27.65;30.68;100045.16;10423678;28;20698;-65
2024/04/07 14:31:05;;;;;;;5.07;0.95;;;;;;;27.47;31.18;100040.69;10354622;28;20124;-65
2024/04/07 14:36:06;;;;;;;3.23;1.50;;;;;;;27.37;31.13;100035.84;10385854;28;20102;-65
2024/04/07 14:41:07;;;;;;;5.90;1.45;;;;;;;27.36;31.29;100017.78;10401141;28;20295;-65
2024/04/07 14:46:07;;;;;;;6.47;1.48;;;;;;;27.28;30.95;100021.69;10407341;28;20053;-65
2024/04/07 14:51:07;;;;;;;6.32;1.35;;;;;;;26.85;31.51;100011.97;10400193;28;20065;-67
2024/04/07 14:56:08;;;;;;;3.22;1.00;;;;;;;26.56;32.11;100010.97;10403118;28;20056;-66
2024/04/07 15:01:09;;;;;;;7.65;1.58;;;;;;;26.48;31.63;99993.03;10421552;28;20136;-65
2024/04/07 15:06:10;;;;;;;4.80;1.30;;;;;;;26.21;32.46;99984.44;10418882;28;20056;-64
2024/04/07 15:11:11;;;;;;;3.25;1.02;;;;;;;26.11;33.10;99980.38;10413198;28;20191;-69
2024/04/07 15:16:11;;;;;;;3.85;1.10;;;;;;;26.00;33.45;99956.66;10415988;28;20340;-64
2024/04/07 15:21:12;;;;;;;6.10;1.60;;;;;;;25.84;33.36;99949.91;10420553;28;20524;-65
2024/04/07 15:26:13;;;;;;;3.95;1.83;;;;;;;25.82;34.01;99948.47;10416958;28;20048;-66
2024/04/07 15:31:13;;;;;;;4.20;0.80;;;;;;;25.57;33.89;99895.78;10414492;28;20638;-65
2024/04/07 15:36:14;;;;;;;5.22;1.48;;;;;;;25.79;34.00;99921.69;10416799;28;20148;-65
2024/04/07 15:41:15;;;;;;;4.45;1.30;;;;;;;25.70;34.59;99918.44;10410168;28;20630;-64
2024/04/07 15:46:15;;;;;;;6.30;1.52;;;;;;;25.55;34.07;99918.88;10414215;28;20047;-64
2024/04/07 15:51:16;;;;;;;4.47;1.33;;;;;;;25.41;34.97;99908.16;10416850;28;20044;-65
2024/04/07 15:56:16;;;;;;;3.90;1.05;;;;;;;25.37;34.89;99904.25;10413025;28;20049;-65
2024/04/07 16:01:21;;;;;;;4.40;1.10;;;;;;;25.31;35.03;99877.91;10408339;28;20048;-65
2024/04/07 16:06:21;;;;;;;5.72;1.65;;;;;;;25.23;35.60;99878.19;10395583;28;20374;-65
2024/04/07 16:11:22;;;;;;;5.40;1.50;;;;;;;24.90;36.00;99854.94;10412937;28;20702;-64
2024/04/07 16:16:22;;;;;;;7.15;1.92;;;;;;;24.82;35.67;99857.97;10415408;28;20050;-66
2024/04/07 16:21:23;;;;;;;4.53;1.58;;;;;;;24.90;35.89;99876.69;10420054;28;20494;-64
2024/04/07 16:26:23;;;;;;;7.65;1.33;;;;;;;24.84;36.10;99874.88;10408786;28;20048;-64
2024/04/07 16:31:24;;;;;;;4.85;1.17;;;;;;;24.57;35.97;99850.66;10414926;28;20721;-64
2024/04/07 16:36:24;;;;;;;6.82;1.92;;;;;;;24.60;35.76;99860.28;10408631;28;20737;-63
2024/04/07 16:41:25;;;;;;;6.00;2.13;;;;;;;24.46;35.45;99852.22;10363415;28;20052;-69
2024/04/07 16:46:25;;;;;;;5.90;1.60;;;;;;;24.25;35.72;99822.75;10338011;28;20316;-67
2024/04/07 16:51:26;;;;;;;13.15;2.67;;;;;;;24.20;35.08;99823.44;10361924;28;20514;-70
2024/04/07 16:56:27;;;;;;;7.18;1.65;;;;;;;24.42;36.07;99847.47;10425024;28;20048;-76
2024/04/07 17:01:27;;;;;;;7.88;2.90;;;;;;;24.27;35.82;99815.19;10396550;28;20501;-73
2024/04/07 17:06:29;;;;;;;6.30;1.92;;;;;;;24.46;35.98;99822.31;10395353;28;20055;-75
2024/04/07 17:11:31;;;;;;;6.27;1.77;;;;;;;24.28;36.87;99798.66;10388585;28;20136;-67
2024/04/07 17:16:34;;;;;;;7.05;2.28;;;;;;;24.43;36.44;99824.66;10405275;28;20319;-67
2024/04/07 17:21:37;;;;;;;9.30;4.03;;;;;;;24.33;36.21;99828.72;10410964;28;20132;-65
2024/04/07 17:26:38;;;;;;;7.43;3.70;;;;;;;24.25;36.19;99834.44;10387877;28;20518;-69
2024/04/07 17:31:39;;;;;;;9.30;3.15;;;;;;;24.18;37.14;99836.41;10398996;28;20113;-67
2024/04/07 17:36:39;;;;;;;6.40;2.47;;;;;;;24.13;36.98;99817.22;10388833;28;20041;-68
2024/04/07 17:41:40;;;;;;;12.70;2.65;;;;;;;23.83;39.43;99756.16;10361381;28;20106;-70
2024/04/07 17:46:40;;;;;;;6.80;2.33;;;;;;;23.94;39.24;99764.69;10409833;28;20053;-68
2024/04/07 17:51:42;;;;;;;6.93;2.20;;;;;;;24.08;39.07;99798.84;10408395;28;20079;-68
2024/04/07 17:56:42;;;;;;;5.45;1.65;;;;;;;23.89;40.32;99772.69;10348042;28;20137;-70
2024/04/07 18:01:43;;;;;;;8.57;2.45;;;;;;;23.80;41.48;99763.94;10403464;28;20056;-68
2024/04/07 18:06:43;;;;;;;5.43;2.40;;;;;;;23.72;41.43;99756.06;10355631;28;20053;-67
2024/04/07 18:11:44;;;;;;;9.03;2.90;;;;;;;23.84;40.42;99792.34;10366909;28;20129;-62
2024/04/07 18:16:44;;;;;;;9.23;3.30;;;;;;;23.75;40.96;99785.50;10391741;28;20337;-62
2024/04/07 18:21:44;;;;;;;8.63;2.63;;;;;;;23.67;41.64;99783.91;10405870;28;20080;-62
2024/04/07 18:26:45;;;;;;;8.65;3.00;;;;;;;23.57;41.59;99783.56;10399527;28;20568;-62
2024/04/07 18:31:45;;;;;;;6.72;2.63;;;;;;;23.51;42.29;99788.00;10397061;28;20052;-62
2024/04/07 18:36:46;;;;;;;7.90;2.65;;;;;;;23.47;42.21;99784.88;10373971;28;20180;-62
2024/04/07 18:41:47;;;;;;;10.73;3.72;;;;;;;23.23;43.26;99758.53;10386420;28;20559;-62
2024/04/07 18:46:49;;;;;;;7.97;4.32;;;;;;;23.30;42.96;99786.47;10358555;28;20684;-62
2024/04/07 18:51:49;;;;;;;6.55;3.70;;;;;;;23.26;43.35;99785.25;10358227;28;20129;-62
2024/04/07 18:56:50;;;;;;;7.53;3.78;;;;;;;23.21;44.03;99785.91;10345062;28;20585;-60
2024/04/07 19:01:50;;;;;;;8.00;3.50;;;;;;;23.17;43.43;99786.56;10413301;28;20044;-60
2024/04/07 19:06:51;;;;;;;10.25;4.38;;;;;;;23.09;44.46;99785.75;10407916;28;20172;-60
2024/04/07 19:11:52;;;;;;;9.02;3.50;;;;;;;23.02;43.28;99793.06;10404696;28;20048;-61
2024/04/07 19:16:52;;;;;;;6.22;3.67;;;;;;;22.94;44.84;99788.72;10408643;28;20053;-60
2024/04/07 19:21:52;;;;;;;7.28;3.72;;;;;;;22.85;44.44;99784.59;10404986;28;20045;-60
2024/04/07 19:26:53;;;;;;;8.30;3.83;;;;;;;22.84;45.63;99782.09;10403224;28;20045;-61
2024/04/07 19:31:53;;;;;;;9.70;4.10;;;;;;;22.78;45.24;99781.88;10377752;28;20054;-61
2024/04/07 19:36:54;;;;;;;7.13;3.80;;;;;;;22.74;45.81;99777.97;10408404;28;20052;-60
2024/04/07 19:41:55;;;;;;;8.15;4.18;;;;;;;22.69;46.15;99774.22;10404196;28;20209;-62
2024/04/07 19:46:55;;;;;;;8.02;3.85;;;;;;;22.49;46.32;99745.28;10410194;28;20514;-64
2024/04/07 19:51:56;;;;;;;10.35;5.68;;;;;;;22.60;46.15;99760.88;10411279;28;20049;-61
2024/04/07 19:56:57;;;;;;;11.65;4.30;;;;;;;22.57;46.52;99749.66;10410597;28;20811;-63
2024/04/07 20:01:57;;;;;;;10.52;5.68;;;;;;;22.51;46.82;99742.38;10414605;28;20131;-61
2024/04/07 20:06:58;;;;;;;10.57;4.13;;;;;;;22.48;46.47;99732.78;10414339;28;20056;-62
2024/04/07 20:11:58;;;;;;;7.55;3.22;;;;;;;22.44;46.76;99731.53;10408722;28;20045;-61
2024/04/07 20:17:02;;;;;;;11.10;3.67;;;;;;;22.42;47.15;99730.91;10407816;28;20052;-60
2024/04/07 20:22:02;;;;;;;7.65;2.63;;;;;;;22.41;47.28;99718.41;10411107;28;20521;-61
2024/04/07 20:27:03;;;;;;;5.93;3.10;;;;;;;22.36;47.71;99715.50;10409365;28;20053;-61
2024/04/07 20:32:04;;;;;;;8.43;3.95;;;;;;;22.33;47.52;99715.94;10404349;28;20093;-62
2024/04/07 20:37:05;;;;;;;7.78;3.42;;;;;;;22.28;47.95;99685.88;10407315;28;20132;-62
2024/04/07 20:42:05;;;;;;;9.07;3.67;;;;;;;22.18;47.92;99679.03;10401139;28;20786;-62
2024/04/07 20:47:06;;;;;;;6.50;3.70;;;;;;;22.16;48.10;99691.13;10411203;28;20049;-63
2024/04/07 20:52:07;;;;;;;7.47;2.90;;;;;;;22.07;48.02;99680.53;10408971;28;20132;-62
2024/04/07 20:57:09;;;;;;;8.63;3.30;;;;;;;22.03;48.23;99664.91;10371626;28;20049;-62
2024/04/07 21:02:10;;;;;;;8.45;2.90;;;;;;;21.99;48.27;99674.50;10379077;28;20140;-62
2024/04/07 21:07:11;;;;;;;8.40;2.42;;;;;;;21.96;48.78;99661.38;10397852;28;20716;-62
2024/04/07 21:12:11;;;;;;;5.63;3.15;;;;;;;21.92;48.67;99662.84;10416138;28;20135;-62
2024/04/07 21:17:12;;;;;;;7.97;2.97;;;;;;;21.86;48.95;99654.53;10414698;28;20116;-62
2024/04/07 21:22:13;;;;;;;4.75;2.75;;;;;;;21.82;48.79;99656.00;10406527;28;20135;-62
2024/04/07 21:27:14;;;;;;;6.43;1.90;;;;;;;21.78;48.57;99648.50;10408497;28;20049;-61
2024/04/07 21:32:14;;;;;;;6.18;2.03;;;;;;;21.75;49.59;99648.94;10421069;28;20049;-61
2024/04/07 21:37:15;;;;;;;5.65;2.00;;;;;;;21.71;49.39;99645.84;10406192;28;20628;-61
2024/04/07 21:42:15;;;;;;;7.15;3.20;;;;;;;21.68;49.73;99643.53;10403316;28;20050;-63
2024/04/07 21:47:16;;;;;;;11.82;2.28;;;;;;;21.62;50.05;99642.50;10404184;28;20040;-62
2024/04/07 21:52:16;;;;;;;7.10;2.30;;;;;;;21.58;49.64;99632.31;10401201;28;20057;-62
2024/04/07 21:57:17;;;;;;;8.25;3.20;;;;;;;21.54;49.76;99637.28;10413478;28;20056;-62
2024/04/07 22:02:17;;;;;;;3.90;2.47;;;;;;;21.44;50.26;99637.72;10379420;28;20697;-63
2024/04/07 22:07:18;;;;;;;8.20;2.50;;;;;;;21.39;50.39;99632.06;10411493;28;20056;-63
2024/04/07 22:12:19;;;;;;;6.13;2.13;;;;;;;21.38;50.36;99616.88;10392300;28;20059;-62
2024/04/07 22:17:19;;;;;;;9.77;3.45;;;;;;;21.35;50.71;99614.59;10408467;28;20071;-62
2024/04/07 22:22:20;;;;;;;4.97;2.50;;;;;;;21.32;51.66;99615.84;10415617;28;20059;-62
2024/04/07 22:27:20;;;;;;;9.55;2.90;;;;;;;21.29;51.74;99618.97;10438123;28;20048;-61
2024/04/07 22:32:21;;;;;;;7.75;3.42;;;;;;;21.24;51.43;99612.53;10415287;28;20048;-63
2024/04/07 22:37:23;;;;;;;6.50;2.67;;;;;;;21.19;51.85;99596.91;10377734;28;20046;-62
2024/04/07 22:42:23;;;;;;;5.55;2.83;;;;;;;21.14;52.31;99610.25;10383752;28;20151;-62
2024/04/07 22:47:24;;;;;;;6.20;3.35;;;;;;;21.10;52.02;99592.75;10422549;28;20049;-62
2024/04/07 22:52:24;;;;;;;7.90;2.90;;;;;;;21.09;52.54;99612.72;10403304;28;20068;-63
2024/04/07 22:57:25;;;;;;;7.65;2.97;;;;;;;21.06;52.82;99603.16;10404639;28;20143;-62
2024/04/07 23:02:25;;;;;;;8.30;3.25;;;;;;;21.00;52.64;99598.56;10392700;28;20768;-62
2024/04/07 23:07:26;;;;;;;7.25;3.75;;;;;;;21.02;53.22;99596.50;10393655;28;20645;-62
2024/04/07 23:12:28;;;;;;;5.72;3.10;;;;;;;20.96;53.68;99583.81;10414156;28;20072;-62
2024/04/07 23:17:29;;;;;;;6.38;2.70;;;;;;;20.94;53.15;99594.00;10405198;28;20135;-62